createdAt,value
2018-11-07T00:00:59.149Z,99.90
2018-11-07T00:03:27.809Z,99.90
2018-11-07T00:05:56.309Z,99.90
2018-11-07T00:08:24.958Z,99.90
2018-11-07T00:10:53.427Z,99.90
2018-11-07T00:13:22.101Z,99.90
2018-11-07T00:15:51.224Z,99.90
2018-11-07T00:18:19.700Z,99.90
2018-11-07T00:20:48.213Z,99.90
2018-11-07T00:23:16.715Z,99.90
2018-11-07T00:25:45.261Z,99.90
2018-11-07T00:28:13.749Z,99.90
2018-11-07T00:30:42.835Z,99.90
2018-11-07T00:33:11.473Z,99.90
2018-11-07T00:35:40.947Z,99.90
2018-11-07T00:38:09.422Z,99.90
2018-11-07T00:40:37.873Z,99.90
2018-11-07T00:43:06.557Z,99.90
2018-11-07T00:45:35.139Z,99.90
2018-11-07T00:48:03.732Z,99.90
2018-11-07T00:50:32.245Z,99.90
2018-11-07T00:53:00.926Z,99.90
2018-11-07T00:55:29.594Z,99.90
2018-11-07T00:57:58.354Z,99.90
2018-11-07T01:00:26.837Z,99.90
2018-11-07T01:02:55.361Z,99.90
2018-11-07T01:05:23.972Z,99.90
2018-11-07T01:07:52.490Z,99.90
2018-11-07T01:10:20.937Z,99.90
2018-11-07T01:12:49.511Z,99.90
2018-11-07T01:15:18.045Z,99.90
2018-11-07T01:17:46.561Z,99.90
2018-11-07T01:20:15.424Z,99.90
2018-11-07T01:22:44.349Z,99.90
2018-11-07T01:25:13.604Z,99.90
2018-11-07T01:27:42.764Z,99.90
2018-11-07T01:30:13.297Z,99.90
2018-11-07T01:32:41.906Z,99.90
2018-11-07T01:35:10.417Z,99.90
2018-11-07T01:37:38.921Z,99.90
2018-11-07T01:40:09.872Z,99.90
2018-11-07T01:42:38.375Z,99.90
2018-11-07T01:45:08.105Z,99.90
2018-11-07T01:47:36.646Z,99.90
2018-11-07T01:50:06.637Z,99.90
2018-11-07T01:52:35.138Z,99.90
2018-11-07T01:55:03.997Z,99.90
2018-11-07T01:57:32.521Z,99.90
2018-11-07T02:00:01.173Z,99.90
2018-11-07T02:02:29.677Z,99.90
2018-11-07T02:04:58.217Z,99.90
2018-11-07T02:07:26.768Z,99.90
2018-11-07T02:09:55.319Z,99.90
2018-11-07T02:12:23.812Z,99.90
2018-11-07T02:14:52.304Z,99.90
2018-11-07T02:17:20.791Z,99.90
2018-11-07T02:19:49.280Z,99.90
2018-11-07T02:22:17.842Z,99.90
2018-11-07T02:24:46.317Z,99.90
2018-11-07T02:27:14.813Z,99.90
2018-11-07T02:29:43.329Z,99.90
2018-11-07T02:32:11.857Z,99.90
2018-11-07T02:34:40.389Z,99.90
2018-11-07T02:37:08.985Z,99.90
2018-11-07T02:39:37.418Z,99.90
2018-11-07T02:42:06.011Z,99.90
2018-11-07T02:44:34.546Z,99.90
2018-11-07T02:47:03.040Z,99.90
2018-11-07T02:49:31.533Z,99.90
2018-11-07T02:52:00.002Z,99.90
2018-11-07T02:54:28.506Z,99.90
2018-11-07T02:56:56.984Z,99.90
2018-11-07T02:59:25.491Z,99.90
2018-11-07T03:01:54.146Z,99.90
2018-11-07T03:04:22.666Z,99.90
2018-11-07T03:06:51.168Z,99.90
2018-11-07T03:09:19.690Z,99.90
2018-11-07T03:11:48.276Z,99.90
2018-11-07T03:14:16.753Z,99.90
2018-11-07T03:16:45.348Z,99.90
2018-11-07T03:19:13.895Z,99.90
2018-11-07T03:21:42.537Z,99.90
2018-11-07T03:24:11.045Z,99.90
2018-11-07T03:26:39.520Z,99.90
2018-11-07T03:29:08.049Z,99.90
2018-11-07T03:31:37.010Z,99.90
2018-11-07T03:34:05.623Z,99.90
2018-11-07T03:36:34.159Z,99.90
2018-11-07T03:39:02.849Z,99.90
2018-11-07T03:41:32.341Z,99.30
2018-11-07T03:44:01.465Z,99.40
2018-11-07T03:46:29.984Z,99.40
2018-11-07T03:48:58.466Z,99.70
2018-11-07T03:51:26.965Z,99.70
2018-11-07T03:53:55.454Z,99.50
2018-11-07T03:56:23.909Z,99.40
2018-11-07T03:58:52.448Z,99.10
2018-11-07T04:01:20.983Z,98.30
2018-11-07T04:03:49.469Z,98.90
2018-11-07T04:06:17.959Z,98.60
2018-11-07T04:08:46.476Z,98.50
2018-11-07T04:11:15.493Z,98.70
2018-11-07T04:13:44.067Z,98.70
2018-11-07T04:16:12.657Z,98.40
2018-11-07T04:18:41.126Z,98.30
2018-11-07T04:21:09.711Z,97.90
2018-11-07T04:23:38.221Z,97.90
2018-11-07T04:26:06.782Z,97.70
2018-11-07T04:28:35.251Z,98.30
2018-11-07T04:31:03.752Z,97.70
2018-11-07T04:33:32.339Z,97.30
2018-11-07T04:36:00.845Z,97.50
2018-11-07T04:38:29.467Z,97.30
2018-11-07T04:40:57.897Z,97.40
2018-11-07T04:43:26.637Z,97.20
2018-11-07T04:45:55.108Z,97.10
2018-11-07T04:48:23.596Z,96.90
2018-11-07T04:50:52.221Z,96.90
2018-11-07T04:53:21.271Z,96.80
2018-11-07T04:55:49.832Z,96.80
2018-11-07T04:58:18.394Z,96.60
2018-11-07T05:00:47.362Z,96.60
2018-11-07T05:03:16.011Z,96.50
2018-11-07T05:05:44.466Z,96.20
2018-11-07T05:08:13.026Z,96.70
2018-11-07T05:10:41.483Z,96.50
2018-11-07T05:13:10.041Z,96.40
2018-11-07T05:15:38.599Z,96.40
2018-11-07T05:18:07.278Z,96.20
2018-11-07T05:20:35.712Z,96.40
2018-11-07T05:23:04.313Z,96.60
2018-11-07T05:25:32.853Z,96.90
2018-11-07T05:28:01.315Z,96.40
2018-11-07T05:30:29.853Z,97.50
2018-11-07T05:32:58.410Z,97.70
2018-11-07T05:35:26.918Z,98.10
2018-11-07T05:37:55.499Z,97.20
2018-11-07T05:40:24.036Z,97.50
2018-11-07T05:42:52.634Z,97.50
2018-11-07T05:45:21.224Z,97.40
2018-11-07T05:47:49.679Z,96.90
2018-11-07T05:50:18.175Z,96.60
2018-11-07T05:52:46.789Z,96.70
2018-11-07T05:55:15.354Z,96.00
2018-11-07T05:57:43.854Z,96.00
2018-11-07T06:00:12.769Z,96.70
2018-11-07T06:02:41.719Z,96.80
2018-11-07T06:05:11.345Z,95.80
2018-11-07T06:07:40.342Z,96.80
2018-11-07T06:10:11.177Z,96.40
2018-11-07T06:12:39.914Z,96.50
2018-11-07T06:15:09.562Z,96.50
2018-11-07T06:17:38.234Z,96.70
2018-11-07T06:20:07.634Z,97.10
2018-11-07T06:22:36.270Z,96.70
2018-11-07T06:25:05.062Z,97.00
2018-11-07T06:27:33.805Z,97.20
2018-11-07T06:30:02.661Z,97.30
2018-11-07T06:32:32.377Z,97.40
2018-11-07T06:35:01.038Z,97.30
2018-11-07T06:37:29.505Z,97.30
2018-11-07T06:39:58.902Z,98.50
2018-11-07T06:42:27.469Z,98.40
2018-11-07T06:44:56.030Z,98.00
2018-11-07T06:47:24.559Z,98.30
2018-11-07T06:49:53.192Z,98.10
2018-11-07T06:52:21.755Z,96.80
2018-11-07T06:54:50.190Z,96.80
2018-11-07T06:57:18.850Z,97.10
2018-11-07T06:59:47.308Z,96.90
2018-11-07T07:02:15.838Z,96.70
2018-11-07T07:04:45.195Z,96.60
2018-11-07T07:07:13.678Z,96.90
2018-11-07T07:09:42.247Z,97.10
2018-11-07T07:12:10.826Z,97.30
2018-11-07T07:14:39.309Z,97.00
2018-11-07T07:17:07.817Z,97.00
2018-11-07T07:19:36.309Z,97.40
2018-11-07T07:22:05.179Z,97.30
2018-11-07T07:24:33.642Z,97.30
2018-11-07T07:27:02.147Z,97.40
2018-11-07T07:29:30.749Z,97.40
2018-11-07T07:31:59.369Z,97.50
2018-11-07T07:34:27.861Z,97.60
2018-11-07T07:36:56.413Z,97.60
2018-11-07T07:39:25.018Z,98.00
2018-11-07T07:41:53.530Z,98.40
2018-11-07T07:44:22.060Z,98.10
2018-11-07T07:46:50.642Z,98.20
2018-11-07T07:49:19.152Z,98.30
2018-11-07T07:51:47.750Z,98.20
2018-11-07T07:54:16.293Z,98.80
2018-11-07T07:56:44.826Z,98.90
2018-11-07T07:59:13.342Z,99.10
2018-11-07T08:01:41.933Z,99.90
2018-11-07T08:04:10.525Z,99.70
2018-11-07T08:06:39.697Z,99.90
2018-11-07T08:09:10.306Z,99.70
2018-11-07T08:11:39.308Z,99.80
2018-11-07T08:14:08.901Z,99.90
2018-11-07T08:16:37.371Z,99.90
2018-11-07T08:19:06.495Z,99.90
2018-11-07T08:21:35.025Z,99.90
2018-11-07T08:24:03.655Z,99.90
2018-11-07T08:26:32.241Z,99.90
2018-11-07T08:29:00.723Z,99.90
2018-11-07T08:31:29.423Z,99.90
2018-11-07T08:33:58.393Z,99.90
2018-11-07T08:36:26.973Z,99.90
2018-11-07T08:38:55.429Z,99.90
2018-11-07T08:41:24.088Z,99.90
2018-11-07T08:43:53.212Z,99.90
2018-11-07T08:46:21.730Z,99.90
2018-11-07T08:48:50.355Z,99.90
2018-11-07T08:51:18.917Z,99.90
2018-11-07T08:53:47.416Z,99.90
2018-11-07T08:56:16.039Z,99.80
2018-11-07T08:58:44.595Z,99.30
2018-11-07T09:01:13.152Z,98.80
2018-11-07T09:03:41.692Z,98.50
2018-11-07T09:06:10.223Z,98.40
2018-11-07T09:08:38.852Z,98.10
2018-11-07T09:11:07.299Z,97.50
2018-11-07T09:13:35.894Z,97.20
2018-11-07T09:16:04.389Z,97.70
2018-11-07T09:18:32.940Z,97.40
2018-11-07T09:21:01.481Z,97.20
2018-11-07T09:23:29.998Z,96.40
2018-11-07T09:25:58.627Z,96.50
2018-11-07T09:28:27.135Z,96.50
2018-11-07T09:30:55.659Z,96.00
2018-11-07T09:33:24.247Z,95.90
2018-11-07T09:35:52.735Z,95.00
2018-11-07T09:38:21.243Z,94.70
2018-11-07T09:40:49.782Z,94.70
2018-11-07T09:43:18.341Z,94.50
2018-11-07T09:45:46.918Z,94.20
2018-11-07T09:48:15.559Z,93.90
2018-11-07T09:50:44.037Z,94.10
2018-11-07T09:53:12.538Z,93.70
2018-11-07T09:55:41.145Z,93.30
2018-11-07T09:58:10.020Z,93.10
2018-11-07T10:00:38.604Z,92.80
2018-11-07T10:03:07.279Z,92.40
2018-11-07T10:05:35.990Z,90.80
2018-11-07T10:08:04.501Z,84.10
2018-11-07T10:10:33.026Z,80.50
2018-11-07T10:13:01.544Z,77.70
2018-11-07T10:15:30.000Z,76.40
2018-11-07T10:17:58.549Z,75.70
2018-11-07T10:20:27.164Z,76.30
2018-11-07T10:22:56.706Z,77.80
2018-11-07T10:25:25.171Z,79.40
2018-11-07T10:27:54.060Z,80.80
2018-11-07T10:30:22.413Z,81.50
2018-11-07T10:32:51.385Z,82.60
2018-11-07T10:35:19.996Z,84.10
2018-11-07T10:37:48.588Z,85.60
2018-11-07T10:40:21.461Z,86.20
2018-11-07T10:42:49.929Z,87.30
2018-11-07T10:45:18.495Z,88.40
2018-11-07T10:47:48.043Z,87.40
2018-11-07T10:50:17.672Z,88.70
2018-11-07T10:52:46.605Z,87.60
2018-11-07T10:55:15.986Z,87.30
2018-11-07T10:57:44.501Z,87.20
2018-11-07T11:00:20.162Z,86.40
2018-11-07T11:03:51.694Z,86.90
2018-11-07T11:06:20.296Z,86.30
2018-11-07T11:08:48.768Z,86.00
2018-11-07T11:11:17.367Z,85.70
2018-11-07T11:13:45.835Z,85.70
2018-11-07T11:16:14.349Z,85.20
2018-11-07T11:18:42.807Z,86.20
2018-11-07T11:21:11.374Z,85.90
2018-11-07T11:23:39.920Z,86.10
2018-11-07T11:26:08.419Z,86.00
2018-11-07T11:28:37.216Z,85.90
2018-11-07T11:31:05.901Z,85.90
2018-11-07T11:33:34.465Z,85.20
2018-11-07T11:36:02.977Z,85.00
2018-11-07T11:38:31.406Z,85.40
2018-11-07T11:41:00.191Z,85.80
2018-11-07T11:43:28.769Z,86.00
2018-11-07T11:45:57.281Z,85.80
2018-11-07T11:48:25.940Z,85.50
2018-11-07T11:50:54.461Z,84.60
2018-11-07T11:53:23.058Z,84.70
2018-11-07T11:55:51.527Z,83.90
2018-11-07T11:58:20.040Z,83.80
2018-11-07T12:00:48.584Z,84.50
2018-11-07T12:03:17.038Z,85.00
2018-11-07T12:05:45.543Z,84.50
2018-11-07T12:08:14.043Z,84.20
2018-11-07T12:10:42.607Z,84.10
2018-11-07T12:13:11.897Z,84.10
2018-11-07T12:15:40.446Z,83.50
2018-11-07T12:18:09.099Z,83.40
2018-11-07T12:20:37.686Z,83.20
2018-11-07T12:23:06.198Z,83.70
2018-11-07T12:25:34.665Z,81.00
2018-11-07T12:28:03.234Z,81.40
2018-11-07T12:30:31.721Z,81.90
2018-11-07T12:33:00.197Z,82.00
2018-11-07T12:35:28.748Z,82.20
2018-11-07T12:37:57.440Z,81.40
2018-11-07T12:40:26.046Z,81.80
2018-11-07T12:42:54.633Z,81.60
2018-11-07T12:45:23.141Z,81.20
2018-11-07T12:47:51.610Z,80.80
2018-11-07T12:50:21.991Z,81.40
2018-11-07T12:52:50.549Z,80.60
2018-11-07T12:55:19.931Z,80.50
2018-11-07T12:57:48.951Z,80.60
2018-11-07T13:00:22.638Z,80.60
2018-11-07T13:02:51.609Z,80.70
2018-11-07T13:05:21.066Z,80.70
2018-11-07T13:07:50.288Z,80.50
2018-11-07T13:10:20.190Z,80.20
2018-11-07T13:12:49.607Z,79.90
2018-11-07T13:15:18.359Z,80.70
2018-11-07T13:17:47.630Z,79.20
2018-11-07T13:20:17.945Z,79.40
2018-11-07T13:22:47.799Z,79.50
2018-11-07T13:25:16.961Z,79.40
2018-11-07T13:27:45.521Z,79.60
2018-11-07T13:30:15.741Z,79.10
2018-11-07T13:32:44.495Z,79.10
2018-11-07T13:35:14.052Z,79.00
2018-11-07T13:37:43.823Z,79.00
2018-11-07T13:40:19.542Z,79.00
2018-11-07T13:42:48.056Z,78.00
2018-11-07T13:45:17.809Z,77.00
2018-11-07T13:47:47.482Z,77.00
2018-11-07T13:50:16.450Z,76.80
2018-11-07T13:52:44.978Z,76.40
2018-11-07T13:55:14.158Z,76.70
2018-11-07T13:57:42.885Z,77.10
2018-11-07T14:00:14.165Z,77.30
2018-11-07T14:02:42.710Z,77.10
2018-11-07T14:05:11.943Z,77.60
2018-11-07T14:07:40.428Z,77.90
2018-11-07T14:10:12.489Z,78.00
2018-11-07T14:12:41.428Z,78.40
2018-11-07T14:15:12.005Z,79.40
2018-11-07T14:17:40.506Z,79.70
2018-11-07T14:20:09.431Z,80.70
2018-11-07T14:22:38.350Z,80.70
2018-11-07T14:25:08.465Z,80.60
2018-11-07T14:27:37.341Z,81.50
2018-11-07T14:30:09.671Z,81.90
2018-11-07T14:32:41.416Z,82.50
2018-11-07T14:35:10.649Z,82.70
2018-11-07T14:37:39.153Z,83.00
2018-11-07T14:40:07.819Z,82.90
2018-11-07T14:42:36.693Z,83.10
2018-11-07T14:45:05.912Z,82.90
2018-11-07T14:47:34.463Z,83.00
2018-11-07T14:50:02.923Z,82.90
2018-11-07T14:52:31.555Z,83.90
2018-11-07T14:55:00.116Z,83.70
2018-11-07T14:57:28.608Z,83.70
2018-11-07T14:59:57.117Z,83.90
2018-11-07T15:02:25.643Z,84.40
2018-11-07T15:04:54.242Z,84.40
2018-11-07T15:07:22.762Z,84.40
2018-11-07T15:09:51.274Z,84.20
2018-11-07T15:12:19.871Z,84.30
2018-11-07T15:14:48.350Z,84.50
2018-11-07T15:17:16.969Z,84.70
2018-11-07T15:19:45.378Z,84.80
2018-11-07T15:22:13.979Z,85.50
2018-11-07T15:24:42.438Z,85.70
2018-11-07T15:27:10.993Z,86.10
2018-11-07T15:29:40.583Z,87.00
2018-11-07T15:32:10.892Z,87.60
2018-11-07T15:34:39.467Z,88.90
2018-11-07T15:37:08.391Z,89.10
2018-11-07T15:39:37.078Z,89.80
2018-11-07T15:42:05.671Z,90.10
2018-11-07T15:44:34.075Z,90.60
2018-11-07T15:47:02.812Z,90.70
2018-11-07T15:49:31.314Z,90.80
2018-11-07T15:51:59.946Z,91.00
2018-11-07T15:54:28.581Z,91.10
2018-11-07T15:56:57.124Z,91.50
2018-11-07T15:59:25.613Z,91.80
2018-11-07T16:01:54.159Z,92.00
2018-11-07T16:04:22.689Z,92.50
2018-11-07T16:06:51.244Z,92.70
2018-11-07T16:09:19.761Z,92.80
2018-11-07T16:11:48.352Z,93.20
2018-11-07T16:14:16.978Z,93.20
2018-11-07T16:16:45.718Z,93.10
2018-11-07T16:19:14.262Z,93.20
2018-11-07T16:21:42.783Z,93.40
2018-11-07T16:24:11.341Z,93.50
2018-11-07T16:26:39.810Z,93.70
2018-11-07T16:29:08.798Z,93.60
2018-11-07T16:31:37.867Z,93.60
2018-11-07T16:34:07.174Z,93.60
2018-11-07T16:36:36.242Z,93.50
2018-11-07T16:39:07.848Z,93.40
2018-11-07T16:41:36.448Z,93.60
2018-11-07T16:44:05.426Z,93.20
2018-11-07T16:46:34.063Z,93.20
2018-11-07T16:49:02.859Z,93.20
2018-11-07T16:51:32.139Z,93.20
2018-11-07T16:54:01.660Z,93.50
2018-11-07T16:56:30.841Z,93.20
2018-11-07T16:59:00.026Z,93.20
2018-11-07T17:01:29.471Z,93.50
2018-11-07T17:03:58.433Z,93.70
2018-11-07T17:06:27.921Z,93.70
2018-11-07T17:08:57.027Z,93.80
2018-11-07T17:11:26.075Z,94.40
2018-11-07T17:13:55.038Z,94.30
2018-11-07T17:16:24.850Z,94.50
2018-11-07T17:18:53.394Z,95.20
2018-11-07T17:21:21.876Z,95.60
2018-11-07T17:23:50.523Z,95.60
2018-11-07T17:26:18.986Z,96.30
2018-11-07T17:28:47.496Z,96.70
2018-11-07T17:31:17.107Z,97.10
2018-11-07T17:33:45.769Z,97.40
2018-11-07T17:36:14.341Z,98.10
2018-11-07T17:38:44.568Z,98.30
2018-11-07T17:41:13.105Z,98.60
2018-11-07T17:43:41.574Z,99.10
2018-11-07T17:46:10.075Z,99.90
2018-11-07T17:48:38.682Z,99.90
2018-11-07T17:51:07.500Z,99.90
2018-11-07T17:53:36.459Z,99.90
2018-11-07T17:56:05.660Z,99.90
2018-11-07T17:58:34.675Z,99.90
2018-11-07T18:01:03.627Z,99.90
2018-11-07T18:03:32.486Z,99.90
2018-11-07T18:06:01.141Z,99.90
2018-11-07T18:08:29.681Z,99.90
2018-11-07T18:10:58.162Z,99.90
2018-11-07T18:13:27.296Z,99.90
2018-11-07T18:15:56.021Z,99.90
2018-11-07T18:18:24.623Z,99.90
2018-11-07T18:20:53.241Z,99.90
2018-11-07T18:23:21.801Z,99.90
2018-11-07T18:25:50.523Z,99.90
2018-11-07T18:28:19.170Z,99.90
2018-11-07T18:30:47.693Z,99.90
2018-11-07T18:33:16.179Z,99.90
2018-11-07T18:35:44.826Z,99.90
2018-11-07T18:38:13.364Z,99.90
2018-11-07T18:40:41.906Z,99.90
2018-11-07T18:43:10.508Z,99.90
2018-11-07T18:45:38.882Z,99.90
2018-11-07T18:48:07.339Z,99.90
2018-11-07T18:50:35.960Z,99.90
2018-11-07T18:53:04.563Z,99.90
2018-11-07T18:55:33.012Z,99.90
2018-11-07T18:58:01.609Z,99.90
2018-11-07T19:00:30.335Z,99.90
2018-11-07T19:02:58.980Z,99.90
2018-11-07T19:05:27.526Z,99.90
2018-11-07T19:07:56.507Z,99.90
2018-11-07T19:10:25.144Z,99.90
2018-11-07T19:12:53.671Z,99.90
2018-11-07T19:15:22.762Z,99.90
2018-11-07T19:17:52.072Z,99.90
2018-11-07T19:20:20.989Z,99.90
2018-11-07T19:22:49.826Z,99.90
2018-11-07T19:25:19.763Z,99.90
2018-11-07T19:27:49.072Z,99.90
2018-11-07T19:30:19.765Z,99.90
2018-11-07T19:32:49.536Z,99.90
2018-11-07T19:35:18.797Z,99.90
2018-11-07T19:37:50.408Z,99.90
2018-11-07T19:40:21.373Z,99.90
2018-11-07T19:42:50.096Z,99.90
2018-11-07T19:45:19.792Z,99.90
2018-11-07T19:47:48.698Z,99.90
2018-11-07T19:50:18.451Z,99.90
2018-11-07T19:52:48.014Z,99.90
2018-11-07T19:55:19.529Z,99.90
2018-11-07T19:57:51.783Z,99.90
2018-11-07T20:00:20.740Z,99.90
2018-11-07T20:02:49.436Z,99.90
2018-11-07T20:05:18.080Z,99.90
2018-11-07T20:07:46.827Z,99.90
2018-11-07T20:10:16.986Z,99.90
2018-11-07T20:12:46.236Z,99.90
2018-11-07T20:15:16.247Z,99.90
2018-11-07T20:17:44.898Z,99.90
2018-11-07T20:20:14.293Z,99.90
2018-11-07T20:22:43.431Z,99.90
2018-11-07T20:25:13.107Z,99.90
2018-11-07T20:27:42.568Z,99.90
2018-11-07T20:30:16.117Z,99.90
2018-11-07T20:32:44.814Z,99.90
2018-11-07T20:35:14.944Z,99.90
2018-11-07T20:37:43.539Z,99.90
2018-11-07T20:40:13.875Z,99.90
2018-11-07T20:42:42.665Z,99.90
2018-11-07T20:45:12.247Z,99.90
2018-11-07T20:47:40.857Z,99.90
2018-11-07T20:50:12.123Z,99.90
2018-11-07T20:52:52.042Z,99.90
2018-11-07T20:55:20.880Z,99.90
2018-11-07T20:57:50.029Z,99.90
2018-11-07T21:00:21.848Z,99.90
2018-11-07T21:02:51.277Z,99.90
2018-11-07T21:05:20.088Z,99.90
2018-11-07T21:07:48.732Z,99.90
2018-11-07T21:10:19.593Z,99.90
2018-11-07T21:12:49.001Z,99.90
2018-11-07T21:15:18.429Z,99.90
2018-11-07T21:17:47.724Z,99.90
2018-11-07T21:20:16.497Z,99.90
2018-11-07T21:22:45.355Z,99.90
2018-11-07T21:25:14.453Z,99.90
2018-11-07T21:27:43.119Z,99.90
2018-11-07T21:30:13.279Z,99.90
2018-11-07T21:32:42.493Z,99.90
2018-11-07T21:35:12.249Z,99.90
2018-11-07T21:37:41.560Z,99.90
2018-11-07T21:40:13.250Z,99.90
2018-11-07T21:42:43.363Z,99.90
2018-11-07T21:45:14.107Z,99.90
2018-11-07T21:47:43.166Z,99.90
2018-11-07T21:50:14.249Z,99.90
2018-11-07T21:52:42.885Z,99.90
2018-11-07T21:55:12.350Z,99.90
2018-11-07T21:57:41.948Z,99.90
2018-11-07T22:00:15.869Z,99.90
2018-11-07T22:02:44.983Z,99.90
2018-11-07T22:05:16.314Z,99.90
2018-11-07T22:07:52.365Z,99.90
2018-11-07T22:10:21.229Z,99.90
2018-11-07T22:12:53.483Z,99.90
2018-11-07T22:15:22.804Z,99.90
2018-11-07T22:17:51.489Z,99.90
2018-11-07T22:20:22.115Z,99.90
2018-11-07T22:22:51.339Z,99.90
2018-11-07T22:25:20.992Z,99.90
2018-11-07T22:27:52.602Z,99.90
2018-11-07T22:30:21.352Z,99.90
2018-11-07T22:32:50.362Z,99.90
2018-11-07T22:35:19.287Z,99.90
2018-11-07T22:37:48.887Z,99.90
2018-11-07T22:40:19.104Z,99.90
2018-11-07T22:42:47.827Z,99.90
2018-11-07T22:45:16.542Z,99.90
2018-11-07T22:47:45.304Z,99.90
2018-11-07T22:50:14.944Z,99.90
2018-11-07T22:52:44.850Z,99.90
2018-11-07T22:55:14.358Z,99.90
2018-11-07T22:57:43.437Z,99.90
2018-11-07T23:00:19.574Z,99.90
2018-11-07T23:02:49.469Z,99.90
2018-11-07T23:05:22.169Z,99.90
2018-11-07T23:07:57.652Z,99.90
2018-11-07T23:10:33.059Z,99.90
2018-11-07T23:13:01.675Z,99.90
2018-11-07T23:15:35.641Z,99.90
2018-11-07T23:18:04.392Z,99.90
2018-11-07T23:20:32.923Z,99.90
2018-11-07T23:23:01.514Z,99.90
2018-11-07T23:25:30.040Z,99.90
2018-11-07T23:27:58.719Z,99.90
2018-11-07T23:30:27.228Z,99.90
2018-11-07T23:32:55.900Z,99.90
2018-11-07T23:35:24.430Z,99.90
2018-11-07T23:37:53.099Z,99.90
2018-11-07T23:40:21.697Z,99.90
2018-11-07T23:42:50.217Z,99.90
2018-11-07T23:45:19.317Z,99.90
2018-11-07T23:47:48.819Z,99.90
2018-11-07T23:50:17.467Z,99.90
2018-11-07T23:52:47.146Z,99.90
2018-11-07T23:55:17.055Z,99.90
2018-11-07T23:57:46.562Z,99.90
